Time;durP1;ratioP1;P1;durP2;ratioP2;P2;SDS_P1;SDS_P2;PMS_P1;PMS_P2;Temp;Humidity;BMP_temperature;BMP_pressure;BME280_temperature;BME280_humidity;BME280_pressure;Samples;Min_cycle;Max_cycle;Signal;HPM_P1;HPM_P2
2022/12/05 00:02:24;;;;;;;;;;;7.60;99.90;;;;;;5013325;28;19909;-75
2022/12/05 00:04:50;;;;;;;;;;;7.60;99.90;;;;;;5013303;28;20268;-74
2022/12/05 00:07:15;;;;;;;;;;;7.70;99.90;;;;;;5014006;28;20000;-76
2022/12/05 00:09:41;;;;;;;;;;;7.70;99.90;;;;;;5013963;28;20324;-75
2022/12/05 00:12:07;;;;;;;;;;;7.70;99.90;;;;;;5013345;28;20013;-75
2022/12/05 00:14:32;;;;;;;;;;;7.80;99.90;;;;;;5013617;28;19909;-76
2022/12/05 00:16:58;;;;;;;;;;;7.80;99.90;;;;;;5013380;28;19980;-75
2022/12/05 00:19:23;;;;;;;;;;;7.90;99.90;;;;;;5013032;28;19963;-75
2022/12/05 00:21:49;;;;;;;;;;;7.80;99.90;;;;;;5014926;28;20009;-78
2022/12/05 00:24:15;;;;;;;;;;;7.80;99.90;;;;;;5035470;28;19929;-76
2022/12/05 00:26:41;;;;;;;;;;;7.80;99.90;;;;;;5035190;28;19913;-76
2022/12/05 00:29:06;;;;;;;;;;;7.90;99.90;;;;;;5033589;28;19948;-75
2022/12/05 00:31:32;;;;;;;;;;;7.80;99.90;;;;;;5035253;28;19916;-80
2022/12/05 00:34:01;;;;;;;;;;;7.90;99.90;;;;;;5035102;28;19909;-79
2022/12/05 00:36:28;;;;;;;;;;;7.80;99.90;;;;;;5036333;28;19957;-75
2022/12/05 00:38:54;;;;;;;;;;;7.90;99.90;;;;;;5033993;28;19929;-76
2022/12/05 00:41:21;;;;;;;;;;;7.90;99.90;;;;;;5021044;28;20020;-76
2022/12/05 00:43:47;;;;;;;;;;;7.90;99.90;;;;;;5021192;28;19910;-82
2022/12/05 00:46:14;;;;;;;;;;;7.80;99.90;;;;;;5019583;28;20087;-77
2022/12/05 00:48:40;;;;;;;;;;;7.80;99.90;;;;;;5017369;28;19932;-76
2022/12/05 00:51:27;;;;;;;;;;;7.80;99.90;;;;;;5015080;28;20473;-75
2022/12/05 00:53:52;;;;;;;;;;;7.70;99.90;;;;;;5015831;28;19917;-77
2022/12/05 00:56:20;;;;;;;;;;;7.70;99.90;;;;;;5015898;28;20004;-76
2022/12/05 00:58:46;;;;;;;;;;;7.70;99.90;;;;;;5015513;28;19932;-82
2022/12/05 01:01:16;;;;;;;;;;;7.70;99.90;;;;;;5015674;28;19909;-76
2022/12/05 01:03:42;;;;;;;;;;;7.70;99.90;;;;;;5015106;28;19909;-75
2022/12/05 01:06:09;;;;;;;;;;;7.60;99.90;;;;;;5014166;28;19905;-75
2022/12/05 01:08:35;;;;;;;;;;;7.60;99.90;;;;;;5014286;28;20288;-76
2022/12/05 01:11:01;;;;;;;;;;;7.60;99.90;;;;;;5014025;28;20016;-76
2022/12/05 01:13:27;;;;;;;;;;;7.60;99.90;;;;;;5014353;28;19920;-76
2022/12/05 01:15:53;;;;;;;;;;;7.60;99.90;;;;;;5013964;28;20302;-81
2022/12/05 01:18:20;;;;;;;;;;;7.60;99.90;;;;;;5014108;28;20003;-77
2022/12/05 01:20:46;;;;;;;;;;;7.60;99.90;;;;;;5014107;28;20254;-83
2022/12/05 01:23:12;;;;;;;;;;;7.60;99.90;;;;;;5014613;28;19910;-76
2022/12/05 01:25:44;;;;;;;;;;;7.60;99.90;;;;;;5014563;28;19917;-76
2022/12/05 01:28:11;;;;;;;;;;;7.60;99.90;;;;;;5013974;28;19916;-77
2022/12/05 01:30:38;;;;;;;;;;;7.60;99.90;;;;;;5012723;28;19909;-75
2022/12/05 01:33:04;;;;;;;;;;;7.60;99.90;;;;;;5013310;28;19970;-74
2022/12/05 01:35:31;;;;;;;;;;;7.60;99.90;;;;;;5013796;28;19932;-75
2022/12/05 01:37:56;;;;;;;;;;;7.60;99.90;;;;;;5013805;28;19910;-75
2022/12/05 01:40:22;;;;;;;;;;;7.50;99.90;;;;;;5014598;28;19926;-75
2022/12/05 01:42:48;;;;;;;;;;;7.50;99.90;;;;;;5013614;28;19917;-82
2022/12/05 01:45:15;;;;;;;;;;;7.40;99.90;;;;;;5013722;28;20016;-76
2022/12/05 01:47:40;;;;;;;;;;;7.40;99.90;;;;;;5014056;28;19909;-75
2022/12/05 01:50:06;;;;;;;;;;;7.40;99.90;;;;;;5013747;28;19983;-76
2022/12/05 01:52:32;;;;;;;;;;;7.30;99.90;;;;;;5013403;28;19933;-74
2022/12/05 01:55:01;;;;;;;;;;;7.30;99.90;;;;;;5013201;28;20387;-75
2022/12/05 01:57:27;;;;;;;;;;;7.20;99.90;;;;;;5013472;28;19917;-75
2022/12/05 01:59:56;;;;;;;;;;;7.20;99.90;;;;;;5012999;28;20363;-76
2022/12/05 02:02:22;;;;;;;;;;;7.20;99.90;;;;;;5013189;28;19916;-76
2022/12/05 02:04:52;;;;;;;;;;;7.20;99.90;;;;;;5013329;28;19910;-78
2022/12/05 02:07:18;;;;;;;;;;;7.20;99.90;;;;;;5013502;28;19932;-75
2022/12/05 02:09:44;;;;;;;;;;;7.20;99.90;;;;;;5013540;28;19913;-75
2022/12/05 02:12:10;;;;;;;;;;;7.20;99.90;;;;;;5010893;28;19972;-76
2022/12/05 02:14:47;;;;;;;;;;;7.20;99.90;;;;;;5013071;28;19910;-76
2022/12/05 02:17:28;;;;;;;;;;;7.20;99.90;;;;;;5013246;28;19948;-77
2022/12/05 02:20:01;;;;;;;;;;;7.30;99.90;;;;;;5012855;28;19920;-78
2022/12/05 02:22:27;;;;;;;;;;;7.40;99.90;;;;;;5013034;28;19910;-78
2022/12/05 02:24:53;;;;;;;;;;;7.40;99.90;;;;;;5012045;28;20287;-79
2022/12/05 02:27:21;;;;;;;;;;;7.40;99.90;;;;;;5013128;28;20275;-78
2022/12/05 02:30:05;;;;;;;;;;;7.40;99.90;;;;;;5013372;28;19920;-78
2022/12/05 02:32:49;;;;;;;;;;;7.40;99.90;;;;;;5012833;28;19922;-78
2022/12/05 02:35:23;;;;;;;;;;;7.40;99.90;;;;;;5012349;28;19909;-79
2022/12/05 02:38:21;;;;;;;;;;;7.50;99.90;;;;;;5013357;28;19921;-78
2022/12/05 02:40:49;;;;;;;;;;;7.50;99.90;;;;;;4988975;28;20437;-78
2022/12/05 02:43:18;;;;;;;;;;;7.60;99.90;;;;;;5011235;28;19910;-79
2022/12/05 02:45:45;;;;;;;;;;;7.60;99.90;;;;;;5012986;28;19913;-78
2022/12/05 02:48:13;;;;;;;;;;;7.50;99.90;;;;;;5012147;28;19910;-78
2022/12/05 02:50:40;;;;;;;;;;;7.50;99.90;;;;;;5012099;28;19909;-78
2022/12/05 02:53:08;;;;;;;;;;;7.40;99.90;;;;;;5012176;28;19920;-75
2022/12/05 02:55:34;;;;;;;;;;;7.30;99.90;;;;;;5012667;28;20240;-77
2022/12/05 02:58:02;;;;;;;;;;;7.20;99.90;;;;;;5012018;28;19910;-79
2022/12/05 03:00:27;;;;;;;;;;;7.20;99.90;;;;;;5012655;28;19913;-78
2022/12/05 03:02:55;;;;;;;;;;;7.10;99.90;;;;;;5012156;28;19921;-83
2022/12/05 03:05:23;;;;;;;;;;;7.10;99.90;;;;;;5012638;28;19909;-78
2022/12/05 03:07:50;;;;;;;;;;;7.00;99.90;;;;;;5011898;28;19909;-79
2022/12/05 03:10:18;;;;;;;;;;;7.00;99.90;;;;;;5011458;28;19909;-78
2022/12/05 03:12:47;;;;;;;;;;;7.00;99.90;;;;;;5012390;28;20017;-80
2022/12/05 03:15:27;;;;;;;;;;;6.90;99.90;;;;;;5010470;28;20202;-80
2022/12/05 03:17:56;;;;;;;;;;;6.80;99.90;;;;;;5011226;28;20338;-82
2022/12/05 03:20:33;;;;;;;;;;;6.90;99.90;;;;;;5012353;28;19909;-80
2022/12/05 03:23:04;;;;;;;;;;;6.80;99.90;;;;;;5012051;28;19922;-83
2022/12/05 03:25:44;;;;;;;;;;;6.80;99.90;;;;;;5011893;28;20381;-83
2022/12/05 03:28:33;;;;;;;;;;;6.80;99.90;;;;;;5011774;28;19910;-80
2022/12/05 03:31:01;;;;;;;;;;;6.80;99.90;;;;;;4992347;28;19913;-81
2022/12/05 03:33:28;;;;;;;;;;;6.80;99.90;;;;;;5012490;28;19921;-81
2022/12/05 03:35:54;;;;;;;;;;;6.90;99.90;;;;;;5011570;28;19916;-87
2022/12/05 03:38:22;;;;;;;;;;;6.90;99.90;;;;;;5014531;28;19913;-77
2022/12/05 03:40:59;;;;;;;;;;;6.90;99.90;;;;;;5015652;28;19914;-77
2022/12/05 03:43:25;;;;;;;;;;;6.80;99.90;;;;;;5015381;28;19910;-78
2022/12/05 03:46:01;;;;;;;;;;;6.80;99.90;;;;;;5015493;28;19910;-81
2022/12/05 03:48:36;;;;;;;;;;;6.80;99.90;;;;;;5013680;28;19933;-80
2022/12/05 03:51:03;;;;;;;;;;;6.80;99.90;;;;;;5014531;28;19979;-80
2022/12/05 03:53:34;;;;;;;;;;;6.80;99.90;;;;;;5014979;28;19909;-80
2022/12/05 03:56:20;;;;;;;;;;;6.80;99.90;;;;;;5014686;28;20023;-79
2022/12/05 03:58:53;;;;;;;;;;;6.80;99.90;;;;;;5014766;28;19935;-79
2022/12/05 04:01:20;;;;;;;;;;;6.80;99.90;;;;;;5013226;28;19916;-78
2022/12/05 04:03:50;;;;;;;;;;;6.80;99.90;;;;;;5015026;28;19909;-78
2022/12/05 04:06:19;;;;;;;;;;;6.70;99.90;;;;;;5014781;28;20016;-78
2022/12/05 04:08:47;;;;;;;;;;;6.70;99.90;;;;;;5014829;28;20009;-78
2022/12/05 04:11:18;;;;;;;;;;;6.70;99.90;;;;;;5014059;28;20454;-78
2022/12/05 04:13:49;;;;;;;;;;;6.70;99.90;;;;;;5014651;28;20314;-79
2022/12/05 04:22:26;;;;;;;;;;;6.70;99.90;;;;;;4973042;28;19989;-79
2022/12/05 04:27:42;;;;;;;;;;;6.70;99.90;;;;;;4974264;28;20272;-80
2022/12/05 04:30:07;;;;;;;;;;;6.80;99.90;;;;;;4973951;28;19969;-78
2022/12/05 04:32:39;;;;;;;;;;;6.80;99.90;;;;;;4973272;28;19930;-79
2022/12/05 04:35:08;;;;;;;;;;;6.80;99.90;;;;;;4973403;28;19914;-80
2022/12/05 04:37:37;;;;;;;;;;;6.80;99.90;;;;;;4973205;28;19914;-79
2022/12/05 04:40:08;;;;;;;;;;;6.80;99.90;;;;;;4973140;28;19961;-80
2022/12/05 04:42:35;;;;;;;;;;;6.90;99.90;;;;;;4973559;28;19937;-79
2022/12/05 04:45:04;;;;;;;;;;;6.90;99.90;;;;;;4972717;28;20384;-82
2022/12/05 04:47:31;;;;;;;;;;;6.80;99.90;;;;;;4972313;28;19933;-79
2022/12/05 04:49:59;;;;;;;;;;;6.80;99.90;;;;;;4972613;28;20034;-80
2022/12/05 04:52:27;;;;;;;;;;;6.80;99.90;;;;;;4972130;28;19953;-79
2022/12/05 04:55:04;;;;;;;;;;;6.80;99.90;;;;;;4972539;28;19917;-80
2022/12/05 04:57:31;;;;;;;;;;;6.80;99.90;;;;;;5012513;28;19956;-79
2022/12/05 04:59:57;;;;;;;;;;;6.80;99.90;;;;;;5014386;28;19916;-79
2022/12/05 05:02:49;;;;;;;;;;;6.70;99.90;;;;;;5018378;28;19914;-80
2022/12/05 05:05:16;;;;;;;;;;;6.80;99.90;;;;;;5015771;28;19955;-80
2022/12/05 05:07:46;;;;;;;;;;;6.80;99.90;;;;;;5015927;28;20041;-81
2022/12/05 05:10:14;;;;;;;;;;;6.90;99.90;;;;;;5019637;28;19925;-80
2022/12/05 05:12:39;;;;;;;;;;;6.80;99.90;;;;;;5030514;28;19960;-81
2022/12/05 05:15:05;;;;;;;;;;;6.90;99.90;;;;;;5028867;28;19913;-81
2022/12/05 05:17:31;;;;;;;;;;;6.90;99.90;;;;;;5036301;28;19941;-80
2022/12/05 05:20:22;;;;;;;;;;;6.80;99.90;;;;;;5036717;28;19908;-82
2022/12/05 05:22:42;;;;;;;;;;;6.80;99.90;;;;;;5036933;28;19910;-85
2022/12/05 05:25:07;;;;;;;;;;;6.80;99.90;;;;;;5035157;28;19909;-85
2022/12/05 05:27:33;;;;;;;;;;;6.80;99.90;;;;;;5036585;28;19914;-81
2022/12/05 05:29:58;;;;;;;;;;;6.80;99.90;;;;;;5028675;28;19913;-80
2022/12/05 05:32:24;;;;;;;;;;;6.80;99.90;;;;;;5011860;28;19922;-80
2022/12/05 05:34:49;;;;;;;;;;;6.80;99.90;;;;;;5012909;28;19909;-78
2022/12/05 05:37:15;;;;;;;;;;;6.80;99.90;;;;;;5010654;28;19916;-79
2022/12/05 05:39:40;;;;;;;;;;;6.90;99.90;;;;;;5012920;28;20000;-79
2022/12/05 05:42:06;;;;;;;;;;;6.90;99.90;;;;;;5011519;28;19910;-78
2022/12/05 05:44:32;;;;;;;;;;;6.90;99.90;;;;;;5012318;28;20370;-79
2022/12/05 05:46:57;;;;;;;;;;;6.90;99.90;;;;;;5012618;28;19964;-79
2022/12/05 05:49:23;;;;;;;;;;;6.80;99.90;;;;;;5011867;28;20012;-77
2022/12/05 05:51:48;;;;;;;;;;;6.80;99.90;;;;;;5011758;28;19925;-77
2022/12/05 05:54:14;;;;;;;;;;;6.80;99.90;;;;;;5011831;28;19996;-79
2022/12/05 05:56:39;;;;;;;;;;;6.80;99.90;;;;;;5012255;28;19909;-78
2022/12/05 05:59:05;;;;;;;;;;;6.80;99.90;;;;;;5012225;28;20247;-81
2022/12/05 06:01:31;;;;;;;;;;;6.80;99.90;;;;;;5011447;28;19914;-77
2022/12/05 06:03:57;;;;;;;;;;;6.80;99.90;;;;;;5011976;28;20393;-77
2022/12/05 06:06:24;;;;;;;;;;;6.80;99.90;;;;;;5011718;28;19985;-77
2022/12/05 06:08:49;;;;;;;;;;;6.90;99.90;;;;;;5012109;28;20332;-78
2022/12/05 06:11:19;;;;;;;;;;;6.90;99.90;;;;;;5011258;28;20004;-79
2022/12/05 06:13:45;;;;;;;;;;;7.00;99.90;;;;;;5010795;28;19914;-78
2022/12/05 06:16:11;;;;;;;;;;;7.00;99.90;;;;;;5011296;28;19932;-79
2022/12/05 06:18:37;;;;;;;;;;;7.00;99.90;;;;;;5011745;28;19916;-79
2022/12/05 06:21:07;;;;;;;;;;;7.00;99.90;;;;;;5010720;28;19914;-79
2022/12/05 06:23:33;;;;;;;;;;;7.00;99.90;;;;;;5012028;28;20255;-79
2022/12/05 06:25:58;;;;;;;;;;;7.10;99.90;;;;;;5012085;28;20036;-79
2022/12/05 06:28:24;;;;;;;;;;;7.10;99.90;;;;;;5011518;28;19944;-79
2022/12/05 06:30:51;;;;;;;;;;;7.10;99.90;;;;;;5011466;28;20024;-80
2022/12/05 06:33:17;;;;;;;;;;;7.10;99.90;;;;;;5011276;28;19933;-81
2022/12/05 06:35:42;;;;;;;;;;;7.10;99.90;;;;;;5011737;28;19909;-82
2022/12/05 06:38:09;;;;;;;;;;;7.10;99.90;;;;;;5010548;28;19968;-85
2022/12/05 06:40:38;;;;;;;;;;;7.10;99.90;;;;;;5011701;28;19909;-82
2022/12/05 06:43:03;;;;;;;;;;;7.10;99.90;;;;;;5010510;28;19922;-81
2022/12/05 06:45:29;;;;;;;;;;;7.10;99.90;;;;;;5011453;28;19990;-81
2022/12/05 06:47:54;;;;;;;;;;;7.10;99.90;;;;;;5011950;28;19913;-79
2022/12/05 06:50:20;;;;;;;;;;;7.00;99.90;;;;;;5011673;28;20404;-79
2022/12/05 06:52:46;;;;;;;;;;;7.00;99.90;;;;;;5012274;28;19924;-81
2022/12/05 06:55:11;;;;;;;;;;;7.00;99.90;;;;;;5011357;28;20347;-80
2022/12/05 06:57:37;;;;;;;;;;;7.00;99.90;;;;;;5011426;28;19910;-80
2022/12/05 07:02:51;;;;;;;;;;;7.00;99.90;;;;;;5011454;28;19917;-77
2022/12/05 07:05:16;;;;;;;;;;;7.10;99.90;;;;;;5011250;28;20017;-79
2022/12/05 07:07:42;;;;;;;;;;;7.20;99.90;;;;;;5011484;28;19945;-79
2022/12/05 07:10:08;;;;;;;;;;;7.20;99.90;;;;;;5011314;28;19910;-82
2022/12/05 07:12:33;;;;;;;;;;;7.20;99.90;;;;;;5013537;28;20444;-80
2022/12/05 07:14:59;;;;;;;;;;;7.10;99.90;;;;;;5015348;28;19910;-79
2022/12/05 07:17:25;;;;;;;;;;;7.10;99.90;;;;;;5014418;28;19909;-79
2022/12/05 07:19:51;;;;;;;;;;;7.00;99.90;;;;;;5014984;28;19987;-82
2022/12/05 07:22:17;;;;;;;;;;;7.00;99.90;;;;;;5014603;28;20044;-80
2022/12/05 07:24:43;;;;;;;;;;;7.10;99.90;;;;;;5014656;28;20019;-79
2022/12/05 07:27:09;;;;;;;;;;;7.10;99.90;;;;;;5014580;28;19956;-85
2022/12/05 07:29:35;;;;;;;;;;;7.10;99.90;;;;;;5014331;28;19910;-80
2022/12/05 07:32:01;;;;;;;;;;;7.10;99.90;;;;;;5014489;28;19922;-79
2022/12/05 07:34:26;;;;;;;;;;;7.00;99.90;;;;;;5012526;28;19910;-77
2022/12/05 07:36:52;;;;;;;;;;;7.00;99.90;;;;;;5014386;28;19944;-77
2022/12/05 07:39:18;;;;;;;;;;;7.00;99.90;;;;;;5013365;28;19917;-78
2022/12/05 07:41:43;;;;;;;;;;;7.00;99.90;;;;;;5014977;28;19914;-78
2022/12/05 07:44:10;;;;;;;;;;;7.10;99.90;;;;;;5014536;28;19913;-77
2022/12/05 07:46:36;;;;;;;;;;;7.00;99.90;;;;;;5013672;28;19964;-77
2022/12/05 07:49:01;;;;;;;;;;;7.00;99.90;;;;;;5014060;28;19913;-76
2022/12/05 07:51:27;;;;;;;;;;;7.00;99.90;;;;;;5013482;28;19981;-75
2022/12/05 07:53:53;;;;;;;;;;;7.00;99.90;;;;;;5013878;28;19980;-77
2022/12/05 07:56:18;;;;;;;;;;;7.10;99.90;;;;;;5013286;28;20342;-79
2022/12/05 07:58:45;;;;;;;;;;;7.10;99.90;;;;;;5013753;28;19909;-80
2022/12/05 08:01:15;;;;;;;;;;;7.10;99.90;;;;;;5014089;28;19909;-78
2022/12/05 08:03:41;;;;;;;;;;;7.10;99.90;;;;;;5014360;28;19958;-78
2022/12/05 08:06:07;;;;;;;;;;;7.10;99.90;;;;;;5013791;28;19917;-78
2022/12/05 08:08:33;;;;;;;;;;;7.00;99.90;;;;;;5013320;28;19909;-79
2022/12/05 08:11:10;;;;;;;;;;;7.00;99.90;;;;;;5014057;28;20000;-80
2022/12/05 08:13:35;;;;;;;;;;;7.00;99.90;;;;;;5013865;28;20315;-81
2022/12/05 08:16:02;;;;;;;;;;;7.00;99.90;;;;;;5013758;28;19940;-80
2022/12/05 08:18:28;;;;;;;;;;;7.00;99.90;;;;;;5013427;28;19913;-81
2022/12/05 08:20:53;;;;;;;;;;;6.90;99.90;;;;;;5014009;28;19913;-77
2022/12/05 08:23:19;;;;;;;;;;;6.90;99.90;;;;;;5012518;28;19917;-78
2022/12/05 08:25:45;;;;;;;;;;;6.90;99.90;;;;;;5012242;28;20243;-79
2022/12/05 08:28:10;;;;;;;;;;;6.90;99.90;;;;;;5013448;28;19909;-78
2022/12/05 08:30:36;;;;;;;;;;;6.90;99.90;;;;;;5012852;28;19910;-79
2022/12/05 08:33:01;;;;;;;;;;;7.00;99.90;;;;;;5013136;28;19925;-82
2022/12/05 08:35:27;;;;;;;;;;;7.00;99.90;;;;;;5013129;28;19910;-81
2022/12/05 08:37:52;;;;;;;;;;;7.00;99.90;;;;;;5013448;28;20339;-80
2022/12/05 08:40:18;;;;;;;;;;;7.00;99.90;;;;;;5013049;28;20251;-81
2022/12/05 08:42:44;;;;;;;;;;;7.00;99.90;;;;;;5011836;28;19997;-81
2022/12/05 08:45:09;;;;;;;;;;;7.00;99.90;;;;;;5013188;28;19963;-78
2022/12/05 08:47:35;;;;;;;;;;;7.00;99.90;;;;;;5012269;28;20357;-79
2022/12/05 08:50:01;;;;;;;;;;;7.00;99.90;;;;;;5013715;28;19936;-79
2022/12/05 08:52:26;;;;;;;;;;;7.10;99.90;;;;;;5012595;28;20272;-78
2022/12/05 08:54:52;;;;;;;;;;;7.10;99.90;;;;;;5013344;28;19913;-78
2022/12/05 08:57:17;;;;;;;;;;;7.20;99.90;;;;;;5012799;28;20005;-85
2022/12/05 08:59:43;;;;;;;;;;;7.20;99.90;;;;;;5012837;28;19914;-78
2022/12/05 09:02:09;;;;;;;;;;;7.20;99.90;;;;;;5012712;28;19941;-81
2022/12/05 09:04:35;;;;;;;;;;;7.20;99.90;;;;;;5012459;28;20043;-79
2022/12/05 09:07:02;;;;;;;;;;;7.20;99.90;;;;;;5012740;28;20109;-77
2022/12/05 09:09:28;;;;;;;;;;;7.20;99.90;;;;;;5012398;28;19913;-80
2022/12/05 09:11:53;;;;;;;;;;;7.20;99.90;;;;;;5012777;28;19963;-80
2022/12/05 09:14:19;;;;;;;;;;;7.20;99.90;;;;;;5012743;28;19914;-81
2022/12/05 09:16:45;;;;;;;;;;;7.20;99.90;;;;;;5013013;28;19931;-80
2022/12/05 09:19:15;;;;;;;;;;;7.20;99.90;;;;;;5012991;28;19917;-79
2022/12/05 09:21:41;;;;;;;;;;;7.20;99.90;;;;;;5012847;28;20004;-80
2022/12/05 09:24:07;;;;;;;;;;;7.10;99.90;;;;;;5013135;28;19949;-80
2022/12/05 09:26:32;;;;;;;;;;;7.20;99.90;;;;;;5012720;28;19917;-79
2022/12/05 09:28:58;;;;;;;;;;;7.10;99.90;;;;;;5012583;28;20320;-79
2022/12/05 09:31:25;;;;;;;;;;;7.10;99.90;;;;;;5012181;28;19925;-80
2022/12/05 09:33:51;;;;;;;;;;;7.10;99.90;;;;;;5012515;28;20260;-80
2022/12/05 09:36:18;;;;;;;;;;;7.10;99.90;;;;;;5012017;28;19909;-81
2022/12/05 09:38:44;;;;;;;;;;;7.10;99.90;;;;;;5012717;28;19916;-79
2022/12/05 09:41:16;;;;;;;;;;;7.10;99.90;;;;;;5012905;28;19909;-79
2022/12/05 09:43:42;;;;;;;;;;;7.10;99.90;;;;;;5012942;28;19909;-78
2022/12/05 09:46:16;;;;;;;;;;;7.10;99.90;;;;;;5012755;28;19910;-78
2022/12/05 09:48:43;;;;;;;;;;;7.10;99.90;;;;;;5012496;28;20304;-78
2022/12/05 09:51:10;;;;;;;;;;;7.00;99.90;;;;;;5009290;28;19918;-80
2022/12/05 09:53:39;;;;;;;;;;;7.10;99.90;;;;;;5000490;28;19916;-82
2022/12/05 09:56:11;;;;;;;;;;;7.10;99.90;;;;;;5001726;28;20086;-82
2022/12/05 09:58:42;;;;;;;;;;;7.10;99.90;;;;;;5000930;28;20508;-80
2022/12/05 10:01:11;;;;;;;;;;;7.20;99.90;;;;;;5010869;28;20009;-78
2022/12/05 10:03:40;;;;;;;;;;;7.20;99.90;;;;;;5010298;28;19940;-78
2022/12/05 10:06:09;;;;;;;;;;;7.30;99.90;;;;;;5011842;28;19909;-77
2022/12/05 10:09:04;;;;;;;;;;;7.40;99.90;;;;;;5011742;28;20000;-77
2022/12/05 10:11:29;;;;;;;;;;;7.60;99.90;;;;;;5002665;28;19914;-77
2022/12/05 10:14:01;;;;;;;;;;;7.70;99.90;;;;;;5011794;28;20434;-77
2022/12/05 10:16:35;;;;;;;;;;;7.80;99.90;;;;;;5011826;28;20378;-78
2022/12/05 10:19:11;;;;;;;;;;;7.80;99.90;;;;;;5011996;28;20382;-78
2022/12/05 10:21:46;;;;;;;;;;;7.90;99.90;;;;;;5011664;28;19956;-76
2022/12/05 10:24:15;;;;;;;;;;;7.90;99.90;;;;;;5011676;28;20004;-77
2022/12/05 10:26:52;;;;;;;;;;;7.90;99.90;;;;;;5011525;28;20279;-77
2022/12/05 10:29:24;;;;;;;;;;;7.90;99.90;;;;;;5018763;28;19981;-81
2022/12/05 10:31:53;;;;;;;;;;;7.90;99.90;;;;;;5034503;28;19945;-78
2022/12/05 10:34:32;;;;;;;;;;;8.00;99.90;;;;;;5034973;28;19937;-82
2022/12/05 10:37:08;;;;;;;;;;;8.00;99.90;;;;;;5033816;28;19913;-82
2022/12/05 10:39:34;;;;;;;;;;;8.20;99.90;;;;;;5031641;28;19901;-78
2022/12/05 10:42:00;;;;;;;;;;;8.10;99.90;;;;;;5034643;28;19932;-76
2022/12/05 10:44:26;;;;;;;;;;;8.10;99.90;;;;;;5033943;28;19937;-82
2022/12/05 10:46:51;;;;;;;;;;;8.00;99.90;;;;;;5035939;28;19901;-76
2022/12/05 10:49:17;;;;;;;;;;;8.00;99.90;;;;;;5038062;28;19914;-77
2022/12/05 10:51:43;;;;;;;;;;;8.00;99.90;;;;;;5021812;28;19917;-77
2022/12/05 10:54:15;;;;;;;;;;;7.90;99.90;;;;;;5024466;28;19932;-78
2022/12/05 10:56:45;;;;;;;;;;;7.90;99.90;;;;;;5021573;28;20052;-78
2022/12/05 10:59:17;;;;;;;;;;;7.90;99.90;;;;;;5019630;28;20406;-77
2022/12/05 11:01:44;;;;;;;;;;;8.00;99.90;;;;;;5019133;28;19905;-77
2022/12/05 11:04:39;;;;;;;;;;;7.90;99.90;;;;;;5017756;28;20026;-77
2022/12/05 11:07:05;;;;;;;;;;;7.90;99.90;;;;;;5007365;28;19910;-78
2022/12/05 11:09:37;;;;;;;;;;;8.00;99.90;;;;;;5015180;28;19916;-77
2022/12/05 11:12:03;;;;;;;;;;;7.90;99.90;;;;;;5016684;28;19921;-77
2022/12/05 11:14:29;;;;;;;;;;;7.90;99.90;;;;;;5015973;28;19972;-78
2022/12/05 11:16:58;;;;;;;;;;;7.90;99.90;;;;;;5016928;28;19921;-77
2022/12/05 11:19:26;;;;;;;;;;;7.90;99.90;;;;;;5015616;28;19914;-79
2022/12/05 11:21:52;;;;;;;;;;;7.90;99.90;;;;;;5016195;28;20029;-78
2022/12/05 11:24:29;;;;;;;;;;;7.90;99.90;;;;;;5016719;28;20343;-77
2022/12/05 11:26:55;;;;;;;;;;;8.00;99.90;;;;;;5017273;28;19913;-77
2022/12/05 11:29:27;;;;;;;;;;;8.00;99.90;;;;;;5014727;28;20008;-77
2022/12/05 11:31:53;;;;;;;;;;;8.00;99.90;;;;;;5016103;28;19921;-77
2022/12/05 11:34:30;;;;;;;;;;;8.00;99.90;;;;;;5014577;28;19915;-78
2022/12/05 11:36:57;;;;;;;;;;;8.00;99.90;;;;;;5015783;28;19910;-77
2022/12/05 11:39:23;;;;;;;;;;;8.10;99.90;;;;;;5015839;28;19910;-82
2022/12/05 11:41:52;;;;;;;;;;;8.00;99.90;;;;;;5013984;28;19909;-77
2022/12/05 11:44:38;;;;;;;;;;;8.00;99.90;;;;;;5015603;28;19909;-77
2022/12/05 11:47:22;;;;;;;;;;;8.10;99.90;;;;;;5013680;28;19920;-77
2022/12/05 11:50:06;;;;;;;;;;;8.00;99.90;;;;;;5014669;28;19981;-77
2022/12/05 11:52:51;;;;;;;;;;;8.00;99.90;;;;;;5015401;28;20475;-77
2022/12/05 11:55:31;;;;;;;;;;;7.90;99.90;;;;;;5015431;28;19913;-77
2022/12/05 11:58:12;;;;;;;;;;;8.00;99.90;;;;;;5014408;28;19963;-77
2022/12/05 12:00:38;;;;;;;;;;;8.00;99.90;;;;;;5014577;28;19909;-77
2022/12/05 12:03:06;;;;;;;;;;;8.00;99.90;;;;;;5015530;28;19991;-79
2022/12/05 12:05:42;;;;;;;;;;;8.00;99.90;;;;;;5014423;28;19917;-78
2022/12/05 12:08:17;;;;;;;;;;;8.00;99.90;;;;;;5012542;28;19910;-78
2022/12/05 12:10:52;;;;;;;;;;;8.00;99.90;;;;;;5014753;28;20382;-77
2022/12/05 12:13:37;;;;;;;;;;;8.00;99.90;;;;;;5014286;28;19919;-78
2022/12/05 12:16:29;;;;;;;;;;;7.90;99.90;;;;;;5014730;28;19913;-77
2022/12/05 12:19:07;;;;;;;;;;;7.90;99.90;;;;;;5015248;28;19917;-78
2022/12/05 12:21:41;;;;;;;;;;;7.90;99.90;;;;;;5014283;28;20025;-77
2022/12/05 12:24:15;;;;;;;;;;;7.90;99.90;;;;;;5014721;28;19936;-78
2022/12/05 12:26:49;;;;;;;;;;;7.90;99.90;;;;;;5013708;28;19909;-77
2022/12/05 12:29:17;;;;;;;;;;;8.00;99.90;;;;;;5014727;28;20000;-78
2022/12/05 12:31:55;;;;;;;;;;;8.00;99.90;;;;;;5013275;28;19921;-78
2022/12/05 12:34:28;;;;;;;;;;;8.00;99.90;;;;;;5014274;28;20067;-78
2022/12/05 12:37:00;;;;;;;;;;;7.90;99.90;;;;;;5014340;28;20341;-77
2022/12/05 12:39:37;;;;;;;;;;;7.80;99.90;;;;;;5013750;28;19909;-83
2022/12/05 12:42:03;;;;;;;;;;;7.80;99.90;;;;;;5013449;28;20020;-78
2022/12/05 12:44:34;;;;;;;;;;;7.70;99.90;;;;;;5012979;28;20315;-80
2022/12/05 12:47:06;;;;;;;;;;;7.80;99.90;;;;;;5012316;28;19910;-80
2022/12/05 12:49:37;;;;;;;;;;;7.70;99.90;;;;;;5012962;28;19909;-80
2022/12/05 12:52:11;;;;;;;;;;;7.70;99.90;;;;;;5013503;28;20012;-80
2022/12/05 12:54:52;;;;;;;;;;;7.70;99.90;;;;;;5013187;28;19944;-80
2022/12/05 12:57:29;;;;;;;;;;;7.70;99.90;;;;;;5013457;28;19910;-79
2022/12/05 13:00:13;;;;;;;;;;;7.80;99.90;;;;;;5011770;28;19920;-79
2022/12/05 13:02:50;;;;;;;;;;;7.80;99.90;;;;;;5012788;28;20071;-79
2022/12/05 13:05:25;;;;;;;;;;;7.80;99.90;;;;;;5013065;28;19909;-81
2022/12/05 13:07:58;;;;;;;;;;;7.80;99.90;;;;;;5012287;28;19916;-80
2022/12/05 13:10:27;;;;;;;;;;;7.70;99.90;;;;;;5012148;28;19914;-79
2022/12/05 13:12:54;;;;;;;;;;;7.60;99.90;;;;;;5013300;28;19921;-79
2022/12/05 13:15:27;;;;;;;;;;;7.60;99.90;;;;;;5011797;28;19920;-79
2022/12/05 13:17:54;;;;;;;;;;;7.60;99.90;;;;;;5011971;28;20210;-79
2022/12/05 13:20:21;;;;;;;;;;;7.60;99.90;;;;;;5012573;28;19909;-79
2022/12/05 13:22:48;;;;;;;;;;;7.60;99.90;;;;;;5010815;28;20008;-80
2022/12/05 13:25:14;;;;;;;;;;;7.60;99.90;;;;;;5012620;28;19921;-79
2022/12/05 13:27:52;;;;;;;;;;;7.60;99.90;;;;;;5012352;28;19981;-79
2022/12/05 13:30:18;;;;;;;;;;;7.70;99.90;;;;;;5013015;28;19916;-79
2022/12/05 13:32:43;;;;;;;;;;;7.70;99.90;;;;;;5012020;28;20331;-78
2022/12/05 13:35:11;;;;;;;;;;;7.80;99.90;;;;;;5012689;28;19921;-79
2022/12/05 13:43:15;;;;;;;;;;;7.70;99.90;;;;;;5013095;28;20021;-80
2022/12/05 13:45:42;;;;;;;;;;;7.70;99.90;;;;;;5013137;28;19917;-80
2022/12/05 13:48:13;;;;;;;;;;;7.60;99.90;;;;;;5012950;28;19941;-80
2022/12/05 13:50:42;;;;;;;;;;;7.60;99.90;;;;;;5012221;28;19916;-80
2022/12/05 13:53:23;;;;;;;;;;;7.60;99.90;;;;;;5012304;28;19913;-80
2022/12/05 13:55:59;;;;;;;;;;;7.60;99.90;;;;;;5012036;28;20340;-78
2022/12/05 13:58:25;;;;;;;;;;;7.70;99.90;;;;;;5012545;28;20239;-79
2022/12/05 14:01:10;;;;;;;;;;;7.70;99.90;;;;;;5011938;28;19909;-80
2022/12/05 14:03:39;;;;;;;;;;;7.60;99.90;;;;;;5011820;28;19945;-79
2022/12/05 14:06:05;;;;;;;;;;;7.60;99.90;;;;;;5012604;28;19909;-78
2022/12/05 14:08:31;;;;;;;;;;;7.60;99.90;;;;;;5012257;28;19932;-80
2022/12/05 14:10:56;;;;;;;;;;;7.60;99.90;;;;;;5013198;28;20356;-80
2022/12/05 14:13:29;;;;;;;;;;;7.60;99.90;;;;;;5012980;28;19917;-82
2022/12/05 14:16:14;;;;;;;;;;;7.50;99.90;;;;;;5011901;28;19913;-80
2022/12/05 14:18:43;;;;;;;;;;;7.50;99.90;;;;;;5012294;28;19909;-78
2022/12/05 14:21:13;;;;;;;;;;;7.50;99.90;;;;;;5011880;28;20000;-79
2022/12/05 14:23:57;;;;;;;;;;;7.50;99.90;;;;;;5012038;28;19909;-79
2022/12/05 14:26:30;;;;;;;;;;;7.40;99.90;;;;;;5012310;28;20008;-80
2022/12/05 14:29:15;;;;;;;;;;;7.50;99.90;;;;;;5012212;28;19910;-79
2022/12/05 14:32:00;;;;;;;;;;;7.50;99.90;;;;;;5010268;28;19922;-79
2022/12/05 14:34:26;;;;;;;;;;;7.50;99.90;;;;;;5012098;28;19909;-78
2022/12/05 14:36:58;;;;;;;;;;;7.50;99.90;;;;;;5012024;28;20283;-78
2022/12/05 14:39:29;;;;;;;;;;;7.50;99.90;;;;;;5012279;28;19913;-78
2022/12/05 14:41:57;;;;;;;;;;;7.50;99.90;;;;;;5011647;28;19963;-78
2022/12/05 14:44:23;;;;;;;;;;;7.60;99.90;;;;;;5012077;28;19910;-78
2022/12/05 14:46:48;;;;;;;;;;;7.60;99.90;;;;;;5011571;28;19909;-78
2022/12/05 14:49:34;;;;;;;;;;;7.50;99.90;;;;;;5011995;28;19932;-79
2022/12/05 14:52:07;;;;;;;;;;;7.50;99.90;;;;;;5012277;28;19914;-77
2022/12/05 14:54:33;;;;;;;;;;;7.50;99.90;;;;;;5019629;28;19924;-85
2022/12/05 14:57:07;;;;;;;;;;;7.50;99.90;;;;;;5034774;28;19901;-83
2022/12/05 14:59:45;;;;;;;;;;;7.40;99.90;;;;;;5034473;28;19914;-86
2022/12/05 15:02:17;;;;;;;;;;;7.40;99.90;;;;;;5034965;28;19902;-81